Terminal Aerodrome Forecast
Issued by NWS Grand Forks, ND

Home | Current Version | Previous Version | Text Only | Print | Product List | Glossary Off
Versions: 1 2 3 4 5 6 7 8 9 10 11 12 13 14 15 16 17 18 19 20 21 22 23 24 25

378
FTUS43 KFGF 200521 AAA
TAFGFK
TAF AMD
KGFK 200521Z 2005/2106 16012KT P6SM BKN150
     FM201200 16011KT P6SM VCSH OVC040
     FM201500 20008KT 4SM BR VCSH OVC015
     FM201900 26011KT P6SM BKN040=

USA.gov is the U.S. government's official web portal to all federal, state and local government web resources and services.